createdAt,value
2022-12-28T00:01:06.022Z,92.80
2022-12-28T00:02:09.277Z,92.71
2022-12-28T00:03:12.626Z,92.54
2022-12-28T00:04:16.019Z,92.54
2022-12-28T00:05:19.417Z,92.67
2022-12-28T00:06:24.423Z,92.81
2022-12-28T00:07:27.526Z,92.65
2022-12-28T00:08:31.190Z,92.77
2022-12-28T00:09:34.383Z,92.67
2022-12-28T00:11:07.995Z,92.94
2022-12-28T00:12:00.701Z,92.51
2022-12-28T00:13:04.008Z,92.60
2022-12-28T00:14:07.424Z,92.47
2022-12-28T00:15:10.852Z,92.90
2022-12-28T00:16:24.871Z,92.93
2022-12-28T00:17:28.095Z,92.98
2022-12-28T00:18:34.581Z,92.93
2022-12-28T00:19:37.817Z,93.05
2022-12-28T00:20:41.246Z,92.73
2022-12-28T00:21:45.911Z,93.02
2022-12-28T00:22:49.310Z,92.92
2022-12-28T00:23:57.278Z,92.93
2022-12-28T00:25:01.849Z,93.01
2022-12-28T00:26:09.936Z,93.16
2022-12-28T00:27:13.107Z,92.96
2022-12-28T00:28:16.175Z,93.24
2022-12-28T00:29:20.222Z,92.86
2022-12-28T00:30:23.483Z,93.14
2022-12-28T00:31:27.097Z,93.33
2022-12-28T00:32:33.528Z,93.11
2022-12-28T00:33:36.669Z,93.02
2022-12-28T00:34:40.669Z,93.03
2022-12-28T00:35:44.691Z,93.23
2022-12-28T00:37:09.378Z,93.22
2022-12-28T00:38:15.614Z,93.21
2022-12-28T00:39:20.247Z,93.26
2022-12-28T00:40:24.304Z,93.12
2022-12-28T00:41:27.529Z,93.26
2022-12-28T00:42:30.505Z,93.21
2022-12-28T00:43:33.981Z,93.22
2022-12-28T00:44:37.236Z,93.05
2022-12-28T00:45:40.413Z,93.17
2022-12-28T00:46:43.819Z,93.18
2022-12-28T00:47:47.696Z,93.13
2022-12-28T00:48:50.960Z,93.11
2022-12-28T00:49:54.035Z,93.19
2022-12-28T00:51:09.301Z,93.40
2022-12-28T00:52:12.634Z,93.21
2022-12-28T00:53:16.095Z,93.13
2022-12-28T00:54:20.838Z,93.13
2022-12-28T00:55:24.020Z,92.88
2022-12-28T00:56:27.107Z,93.14
2022-12-28T00:57:31.278Z,93.28
2022-12-28T00:58:34.852Z,93.23
2022-12-28T00:59:38.075Z,93.52
2022-12-28T01:00:41.284Z,93.24
2022-12-28T01:01:44.518Z,93.30
2022-12-28T01:02:48.031Z,93.32
2022-12-28T01:03:51.940Z,93.35
2022-12-28T01:04:54.916Z,93.27
2022-12-28T01:05:58.313Z,93.11
2022-12-28T01:07:01.347Z,93.14
2022-12-28T01:08:07.679Z,93.30
2022-12-28T01:09:10.827Z,93.18
2022-12-28T01:10:14.096Z,93.26
2022-12-28T01:11:20.814Z,93.12
2022-12-28T01:12:23.869Z,93.16
2022-12-28T01:13:27.170Z,93.21
2022-12-28T01:14:30.250Z,93.29
2022-12-28T01:15:33.502Z,93.56
2022-12-28T01:16:37.160Z,93.46
2022-12-28T01:17:40.617Z,93.51
2022-12-28T01:18:45.219Z,93.38
2022-12-28T01:19:53.710Z,93.50
2022-12-28T01:20:57.319Z,93.41
2022-12-28T01:22:00.275Z,93.27
2022-12-28T01:23:03.364Z,93.13
2022-12-28T01:24:10.227Z,93.55
2022-12-28T01:25:13.803Z,93.22
2022-12-28T01:26:16.906Z,93.34
2022-12-28T01:27:21.415Z,93.31
2022-12-28T01:28:24.456Z,93.64
2022-12-28T01:29:27.654Z,93.41
2022-12-28T01:30:31.694Z,93.41
2022-12-28T01:31:35.335Z,93.39
2022-12-28T01:32:38.600Z,93.60
2022-12-28T01:33:42.732Z,93.48
2022-12-28T01:34:45.955Z,93.33
2022-12-28T01:35:48.991Z,93.37
2022-12-28T01:36:52.007Z,93.46
2022-12-28T01:37:57.093Z,93.52
2022-12-28T01:39:03.876Z,93.48
2022-12-28T01:40:10.045Z,93.55
2022-12-28T01:41:18.599Z,93.54
2022-12-28T01:42:21.641Z,93.10
2022-12-28T01:43:39.574Z,93.19
2022-12-28T01:44:45.528Z,93.27
2022-12-28T01:45:52.790Z,93.42
2022-12-28T01:47:02.974Z,93.48
2022-12-28T01:48:16.604Z,93.50
2022-12-28T01:49:28.819Z,93.24
2022-12-28T01:50:32.089Z,93.14
2022-12-28T01:51:50.225Z,93.41
2022-12-28T01:52:57.487Z,93.42
2022-12-28T01:54:04.514Z,93.08
2022-12-28T01:55:35.186Z,93.41
2022-12-28T01:56:39.697Z,93.05
2022-12-28T01:58:05.838Z,93.22
2022-12-28T01:59:10.326Z,93.22
2022-12-28T02:00:15.779Z,93.37
2022-12-28T02:01:21.774Z,93.18
2022-12-28T02:02:25.180Z,93.36
2022-12-28T02:03:32.856Z,93.09
2022-12-28T02:04:36.070Z,93.33
2022-12-28T02:05:42.521Z,93.24
2022-12-28T02:06:46.720Z,93.34
2022-12-28T02:07:57.932Z,93.30
2022-12-28T02:09:10.264Z,93.21
2022-12-28T02:10:42.371Z,93.13
2022-12-28T02:11:38.514Z,93.09
2022-12-28T02:12:43.786Z,93.23
2022-12-28T02:13:50.123Z,93.35
2022-12-28T02:14:54.263Z,93.31
2022-12-28T02:15:57.467Z,93.23
2022-12-28T02:17:00.854Z,93.29
2022-12-28T02:18:04.437Z,92.98
2022-12-28T02:19:09.801Z,93.27
2022-12-28T02:20:14.371Z,93.24
2022-12-28T02:21:39.453Z,92.92
2022-12-28T02:23:21.046Z,92.79
2022-12-28T02:25:12.831Z,93.05
2022-12-28T02:26:26.964Z,92.96
2022-12-28T02:27:54.829Z,93.12
2022-12-28T02:29:23.877Z,92.63
2022-12-28T02:32:49.450Z,92.57
2022-12-28T02:34:02.603Z,92.94
2022-12-28T02:35:08.764Z,92.65
2022-12-28T02:36:19.321Z,92.72
2022-12-28T02:37:27.162Z,92.54
2022-12-28T02:38:36.947Z,92.22
2022-12-28T02:39:47.302Z,92.49
2022-12-28T02:41:00.230Z,92.46
2022-12-28T02:42:05.162Z,92.21
2022-12-28T02:43:09.143Z,92.41
2022-12-28T02:44:33.228Z,92.19
2022-12-28T02:46:00.914Z,92.55
2022-12-28T02:47:23.524Z,92.08
2022-12-28T02:48:45.242Z,92.24
2022-12-28T02:50:06.902Z,92.17
2022-12-28T02:51:56.995Z,92.11
2022-12-28T02:53:30.469Z,91.94
2022-12-28T02:55:29.315Z,92.27
2022-12-28T02:56:55.721Z,91.91
2022-12-28T02:58:18.820Z,92.25
2022-12-28T02:59:55.057Z,92.04
2022-12-28T03:01:10.241Z,92.11
2022-12-28T03:02:25.918Z,92.28
2022-12-28T03:03:48.143Z,92.23
2022-12-28T03:05:19.123Z,92.05
2022-12-28T03:07:03.361Z,92.20
2022-12-28T03:08:20.206Z,92.04
2022-12-28T03:09:36.987Z,91.91
2022-12-28T03:10:50.001Z,91.93
2022-12-28T03:12:04.405Z,91.82
2022-12-28T03:13:34.310Z,92.04
2022-12-28T03:14:49.294Z,92.19
2022-12-28T03:15:53.161Z,91.82
2022-12-28T03:17:19.647Z,91.45
2022-12-28T03:18:42.245Z,90.46
2022-12-28T03:20:15.523Z,91.00
2022-12-28T03:21:39.200Z,90.98
2022-12-28T03:23:04.626Z,90.91
2022-12-28T03:24:28.983Z,90.27
2022-12-28T03:25:56.867Z,90.32
2022-12-28T03:27:28.341Z,90.82
2022-12-28T03:28:55.795Z,90.21
2022-12-28T03:30:24.641Z,90.42
2022-12-28T03:31:29.159Z,90.58
2022-12-28T03:32:35.625Z,90.78
2022-12-28T03:33:46.701Z,90.57
2022-12-28T03:34:50.013Z,90.69
2022-12-28T03:36:02.766Z,90.68
2022-12-28T03:37:29.560Z,90.95
2022-12-28T03:38:48.425Z,90.51
2022-12-28T03:39:53.355Z,90.71
2022-12-28T03:41:10.917Z,90.84
2022-12-28T03:42:37.467Z,90.76
2022-12-28T03:43:51.630Z,90.66
2022-12-28T03:45:06.938Z,90.62
2022-12-28T03:46:14.298Z,90.47
2022-12-28T03:47:21.002Z,90.23
2022-12-28T03:48:25.216Z,89.68
2022-12-28T03:49:29.036Z,89.63
2022-12-28T03:50:38.374Z,90.15
2022-12-28T03:51:45.267Z,89.83
2022-12-28T03:52:49.578Z,89.53
2022-12-28T03:53:52.718Z,89.18
2022-12-28T03:54:57.603Z,89.15
2022-12-28T03:56:12.072Z,89.11
2022-12-28T03:57:17.093Z,89.04
2022-12-28T03:58:22.023Z,89.26
2022-12-28T03:59:26.033Z,89.09
2022-12-28T04:00:29.258Z,89.56
2022-12-28T04:01:32.463Z,89.54
2022-12-28T04:02:35.873Z,89.33
2022-12-28T04:03:39.932Z,89.21
2022-12-28T04:04:42.970Z,89.30
2022-12-28T04:05:46.248Z,89.07
2022-12-28T04:06:49.418Z,88.90
2022-12-28T04:07:52.758Z,88.82
2022-12-28T04:08:55.745Z,88.36
2022-12-28T04:09:59.361Z,88.69
2022-12-28T04:11:02.695Z,88.59
2022-12-28T04:12:06.713Z,88.98
2022-12-28T04:13:39.186Z,88.95
2022-12-28T04:14:44.270Z,88.79
2022-12-28T04:15:59.350Z,88.71
2022-12-28T04:17:02.888Z,89.01
2022-12-28T04:18:06.653Z,88.95
2022-12-28T04:19:10.527Z,88.90
2022-12-28T04:20:13.633Z,89.30
2022-12-28T04:21:16.830Z,88.73
2022-12-28T04:22:20.950Z,88.75
2022-12-28T04:23:24.727Z,88.97
2022-12-28T04:24:36.738Z,88.63
2022-12-28T04:25:41.268Z,88.35
2022-12-28T04:26:45.503Z,88.49
2022-12-28T04:27:49.946Z,88.98
2022-12-28T04:29:12.918Z,88.90
2022-12-28T04:30:44.813Z,88.78
2022-12-28T04:31:48.422Z,88.80
2022-12-28T04:32:55.734Z,88.81
2022-12-28T04:34:00.456Z,88.95
2022-12-28T04:35:05.724Z,89.07
2022-12-28T04:36:14.710Z,88.75
2022-12-28T04:37:18.239Z,89.07
2022-12-28T04:38:21.818Z,89.09
2022-12-28T04:39:24.864Z,89.01
2022-12-28T04:40:27.980Z,88.87
2022-12-28T04:41:31.302Z,88.97
2022-12-28T04:42:34.335Z,88.89
2022-12-28T04:43:39.005Z,88.84
2022-12-28T04:44:42.094Z,88.93
2022-12-28T04:45:55.729Z,88.94
2022-12-28T04:46:59.247Z,89.02
2022-12-28T04:48:02.706Z,88.95
2022-12-28T04:49:05.794Z,89.18
2022-12-28T04:50:09.397Z,88.94
2022-12-28T04:51:22.187Z,88.97
2022-12-28T04:52:25.298Z,89.11
2022-12-28T04:53:28.334Z,89.16
2022-12-28T04:54:31.321Z,89.08
2022-12-28T04:55:35.210Z,89.13
2022-12-28T04:56:38.337Z,89.06
2022-12-28T04:57:44.114Z,89.09
2022-12-28T04:58:48.118Z,89.24
2022-12-28T04:59:51.363Z,89.05
2022-12-28T05:00:54.425Z,89.31
2022-12-28T05:01:57.598Z,89.40
2022-12-28T05:03:00.997Z,89.35
2022-12-28T05:04:05.822Z,89.40
2022-12-28T05:05:09.355Z,89.60
2022-12-28T05:06:17.760Z,89.60
2022-12-28T05:07:20.755Z,89.57
2022-12-28T05:08:24.065Z,89.51
2022-12-28T05:09:27.076Z,89.53
2022-12-28T05:10:30.259Z,89.68
2022-12-28T05:11:33.365Z,89.77
2022-12-28T05:12:36.445Z,89.62
2022-12-28T05:13:39.638Z,89.91
2022-12-28T05:14:42.982Z,90.03
2022-12-28T05:15:46.173Z,89.96
2022-12-28T05:16:52.322Z,89.95
2022-12-28T05:17:56.014Z,90.24
2022-12-28T05:18:59.236Z,89.98
2022-12-28T05:20:03.639Z,90.13
2022-12-28T05:21:10.070Z,90.22
2022-12-28T05:22:15.514Z,90.27
2022-12-28T05:23:18.656Z,90.20
2022-12-28T05:24:22.720Z,90.22
2022-12-28T05:25:25.953Z,90.45
2022-12-28T05:26:30.009Z,90.49
2022-12-28T05:27:33.190Z,90.44
2022-12-28T05:28:36.239Z,90.64
2022-12-28T05:29:39.369Z,90.41
2022-12-28T05:30:42.420Z,90.85
2022-12-28T05:31:45.794Z,90.59
2022-12-28T05:32:48.859Z,90.84
2022-12-28T05:33:52.817Z,90.86
2022-12-28T05:34:55.832Z,91.10
2022-12-28T05:36:06.828Z,91.02
2022-12-28T05:37:09.959Z,91.16
2022-12-28T05:38:13.056Z,91.41
2022-12-28T05:39:16.141Z,91.38
2022-12-28T05:40:20.352Z,91.55
2022-12-28T05:41:26.474Z,91.76
2022-12-28T05:42:29.695Z,91.84
2022-12-28T05:43:33.238Z,92.04
2022-12-28T05:44:36.275Z,92.23
2022-12-28T05:45:40.065Z,92.17
2022-12-28T05:46:43.127Z,92.34
2022-12-28T05:47:46.102Z,92.45
2022-12-28T05:48:49.076Z,92.63
2022-12-28T05:49:52.017Z,92.56
2022-12-28T05:50:59.662Z,92.79
2022-12-28T05:52:02.780Z,93.12
2022-12-28T05:53:06.000Z,93.08
2022-12-28T05:54:08.973Z,93.28
2022-12-28T05:55:11.919Z,93.41
2022-12-28T05:56:21.145Z,93.42
2022-12-28T05:57:24.358Z,93.75
2022-12-28T05:58:27.470Z,94.03
2022-12-28T05:59:30.498Z,93.99
2022-12-28T06:00:33.621Z,93.94
2022-12-28T06:01:40.283Z,93.95
2022-12-28T06:02:43.758Z,94.13
2022-12-28T06:03:51.964Z,94.17
2022-12-28T06:04:55.004Z,94.22
2022-12-28T06:06:02.261Z,94.00
2022-12-28T06:07:05.305Z,94.04
2022-12-28T06:08:08.339Z,94.10
2022-12-28T06:09:11.460Z,94.41
2022-12-28T06:10:14.410Z,94.60
2022-12-28T06:11:21.158Z,94.54
2022-12-28T06:12:24.645Z,94.34
2022-12-28T06:13:28.113Z,94.52
2022-12-28T06:14:31.571Z,94.54
2022-12-28T06:15:34.617Z,94.59
2022-12-28T06:16:40.716Z,94.59
2022-12-28T06:17:43.993Z,94.56
2022-12-28T06:18:47.390Z,94.46
2022-12-28T06:19:50.416Z,94.72
2022-12-28T06:20:57.016Z,94.64
2022-12-28T06:22:00.412Z,94.51
2022-12-28T06:23:03.751Z,94.58
2022-12-28T06:24:08.101Z,94.79
2022-12-28T06:25:11.116Z,94.86
2022-12-28T06:26:16.897Z,94.57
2022-12-28T06:27:20.230Z,94.69
2022-12-28T06:28:23.328Z,94.80
2022-12-28T06:29:27.167Z,94.71
2022-12-28T06:30:30.729Z,94.89
2022-12-28T06:31:37.373Z,94.84
2022-12-28T06:32:40.565Z,94.91
2022-12-28T06:33:47.962Z,94.91
2022-12-28T06:34:51.171Z,94.64
2022-12-28T06:35:54.926Z,94.87
2022-12-28T06:37:00.237Z,94.99
2022-12-28T06:38:03.284Z,94.71
2022-12-28T06:39:09.559Z,94.72
2022-12-28T06:40:12.998Z,94.70
2022-12-28T06:41:17.771Z,94.71
2022-12-28T06:42:20.812Z,94.61
2022-12-28T06:43:23.921Z,94.76
2022-12-28T06:44:27.037Z,94.74
2022-12-28T06:45:30.239Z,94.92
2022-12-28T06:46:33.595Z,94.81
2022-12-28T06:47:37.774Z,94.77
2022-12-28T06:48:42.168Z,94.88
2022-12-28T06:49:45.548Z,94.88
2022-12-28T06:50:59.265Z,94.72
2022-12-28T06:52:02.680Z,94.83
2022-12-28T06:53:05.782Z,94.79
2022-12-28T06:54:09.813Z,95.02
2022-12-28T06:55:13.230Z,94.87
2022-12-28T06:56:20.962Z,95.01
2022-12-28T06:57:24.239Z,95.04
2022-12-28T06:58:29.422Z,94.81
2022-12-28T06:59:32.600Z,95.04
2022-12-28T07:00:35.833Z,95.02
2022-12-28T07:01:44.911Z,95.03
2022-12-28T07:02:49.224Z,95.12
2022-12-28T07:03:55.095Z,95.03
2022-12-28T07:04:58.174Z,95.26
2022-12-28T07:06:02.590Z,95.24
2022-12-28T07:07:05.669Z,95.28
2022-12-28T07:08:12.520Z,95.52
2022-12-28T07:09:16.483Z,95.43
2022-12-28T07:10:19.742Z,95.34
2022-12-28T07:11:22.879Z,95.41
2022-12-28T07:12:26.238Z,95.39
2022-12-28T07:13:29.837Z,95.44
2022-12-28T07:14:33.203Z,95.41
2022-12-28T07:15:36.933Z,95.46
2022-12-28T07:17:42.014Z,95.66
2022-12-28T07:18:45.846Z,95.39
2022-12-28T07:19:48.870Z,95.47
2022-12-28T07:20:51.997Z,95.56
2022-12-28T07:21:55.720Z,95.62
2022-12-28T07:22:58.755Z,95.59
2022-12-28T07:24:03.523Z,95.44
2022-12-28T07:25:07.358Z,95.73
2022-12-28T07:26:16.512Z,95.83
2022-12-28T07:27:19.544Z,95.72
2022-12-28T07:28:22.923Z,95.84
2022-12-28T07:29:26.140Z,95.77
2022-12-28T07:30:29.255Z,95.58
2022-12-28T07:31:43.661Z,96.00
2022-12-28T07:32:48.482Z,95.94
2022-12-28T07:33:53.880Z,95.79
2022-12-28T07:34:56.935Z,95.85
2022-12-28T07:36:00.129Z,95.92
2022-12-28T07:37:03.236Z,95.86
2022-12-28T07:38:06.329Z,95.87
2022-12-28T07:39:10.500Z,96.07
2022-12-28T07:40:13.723Z,95.94
2022-12-28T07:41:33.004Z,96.11
2022-12-28T07:42:36.296Z,95.86
2022-12-28T07:43:39.999Z,96.05
2022-12-28T07:44:49.075Z,96.13
2022-12-28T07:46:11.080Z,96.13
2022-12-28T07:47:15.001Z,96.11
2022-12-28T07:48:18.095Z,96.29
2022-12-28T07:49:21.467Z,96.36
2022-12-28T07:50:24.570Z,96.45
2022-12-28T07:51:32.945Z,96.30
2022-12-28T07:52:37.231Z,96.12
2022-12-28T07:53:41.566Z,96.38
2022-12-28T07:54:44.878Z,96.27
2022-12-28T07:55:58.436Z,96.17
2022-12-28T07:57:01.495Z,96.22
2022-12-28T07:58:04.684Z,96.44
2022-12-28T07:59:07.761Z,96.18
2022-12-28T08:00:11.546Z,96.36
2022-12-28T08:01:19.842Z,96.45
2022-12-28T08:02:23.587Z,96.46
2022-12-28T08:03:26.909Z,96.17
2022-12-28T08:04:30.110Z,96.38
2022-12-28T08:05:33.584Z,96.40
2022-12-28T08:06:39.941Z,96.62
2022-12-28T08:07:43.117Z,96.40
2022-12-28T08:08:48.551Z,96.54
2022-12-28T08:09:51.616Z,96.35
2022-12-28T08:10:55.227Z,96.39
2022-12-28T08:11:58.424Z,96.38
2022-12-28T08:13:02.206Z,96.71
2022-12-28T08:14:06.307Z,96.44
2022-12-28T08:15:09.757Z,96.56
2022-12-28T08:16:15.787Z,96.47
2022-12-28T08:17:21.234Z,96.35
2022-12-28T08:18:24.570Z,96.54
2022-12-28T08:19:27.655Z,96.51
2022-12-28T08:20:31.197Z,96.59
2022-12-28T08:21:38.294Z,96.81
2022-12-28T08:22:41.322Z,96.86
2022-12-28T08:23:45.070Z,96.57
2022-12-28T08:24:48.110Z,96.81
2022-12-28T08:25:51.208Z,96.73
2022-12-28T08:26:54.514Z,96.60
2022-12-28T08:27:57.631Z,96.91
2022-12-28T08:29:02.577Z,96.87
2022-12-28T08:30:06.400Z,96.82
2022-12-28T08:31:12.859Z,96.75
2022-12-28T08:32:16.015Z,96.92
2022-12-28T08:33:19.044Z,96.97
2022-12-28T08:34:27.498Z,97.00
2022-12-28T08:35:30.825Z,97.13
2022-12-28T08:36:34.921Z,97.23
2022-12-28T08:37:38.226Z,96.87
2022-12-28T08:38:43.278Z,97.01
2022-12-28T08:39:46.665Z,97.16
2022-12-28T08:41:01.182Z,97.07
2022-12-28T08:42:04.173Z,96.95
2022-12-28T08:43:07.323Z,96.97
2022-12-28T08:44:10.835Z,97.04
2022-12-28T08:45:14.111Z,96.91
2022-12-28T08:46:18.629Z,97.17
2022-12-28T08:47:21.999Z,97.26
2022-12-28T08:48:26.032Z,97.28
2022-12-28T08:49:29.076Z,97.15
2022-12-28T08:50:33.248Z,97.31
2022-12-28T08:51:42.016Z,97.33
2022-12-28T08:52:45.784Z,97.08
2022-12-28T08:53:49.376Z,97.17
2022-12-28T08:54:52.469Z,97.21
2022-12-28T08:55:55.558Z,97.24
2022-12-28T08:56:58.602Z,97.30
2022-12-28T08:58:01.683Z,97.24
2022-12-28T08:59:05.999Z,97.30
2022-12-28T09:00:10.386Z,97.29
2022-12-28T09:01:19.313Z,97.46
2022-12-28T09:02:22.808Z,97.41
2022-12-28T09:03:26.072Z,97.29
2022-12-28T09:04:29.686Z,97.41
2022-12-28T09:05:39.229Z,97.50
2022-12-28T09:06:45.679Z,97.46
2022-12-28T09:07:48.856Z,97.51
2022-12-28T09:09:05.350Z,97.66
2022-12-28T09:10:10.323Z,97.67
2022-12-28T09:11:14.080Z,97.69
2022-12-28T09:12:17.564Z,97.64
2022-12-28T09:13:22.148Z,97.71
2022-12-28T09:14:25.329Z,97.68
2022-12-28T09:15:28.666Z,97.63
2022-12-28T09:16:32.540Z,97.87
2022-12-28T09:17:36.482Z,97.57
2022-12-28T09:18:45.667Z,97.62
2022-12-28T09:19:48.838Z,97.70
2022-12-28T09:20:52.780Z,97.74
2022-12-28T09:21:55.836Z,97.78
2022-12-28T09:22:59.776Z,97.94
2022-12-28T09:24:04.449Z,97.72
2022-12-28T09:25:07.904Z,97.73
2022-12-28T09:29:56.424Z,98.27
2022-12-28T09:31:05.398Z,98.34
2022-12-28T09:32:08.750Z,98.19
2022-12-28T09:33:30.821Z,98.17
2022-12-28T09:34:37.897Z,98.40
2022-12-28T09:35:42.565Z,98.39
2022-12-28T09:36:46.607Z,98.34
2022-12-28T09:37:49.727Z,98.36
2022-12-28T09:38:53.394Z,98.29
2022-12-28T09:40:01.264Z,98.42
2022-12-28T09:41:15.370Z,98.20
2022-12-28T09:42:24.526Z,98.44
2022-12-28T09:43:28.193Z,98.55
2022-12-28T09:44:51.880Z,98.55
2022-12-28T09:45:55.461Z,98.53
2022-12-28T09:47:28.184Z,98.63
2022-12-28T09:48:31.701Z,98.78
2022-12-28T09:50:02.086Z,98.88
2022-12-28T09:51:05.440Z,98.74
2022-12-28T09:52:27.509Z,98.47
2022-12-28T09:53:34.719Z,98.67
2022-12-28T09:54:39.669Z,98.56
2022-12-28T09:55:59.723Z,98.85
2022-12-28T09:57:02.917Z,98.47
2022-12-28T09:58:14.444Z,98.49
2022-12-28T09:59:23.174Z,98.09
2022-12-28T10:00:38.983Z,98.17
2022-12-28T10:01:44.051Z,98.34
2022-12-28T10:03:14.921Z,98.15
2022-12-28T10:04:20.223Z,97.95
2022-12-28T10:05:27.997Z,98.29
2022-12-28T10:06:36.938Z,98.22
2022-12-28T10:07:39.990Z,98.08
2022-12-28T10:09:09.052Z,98.28
2022-12-28T10:10:22.482Z,98.20
2022-12-28T10:11:33.548Z,97.95
2022-12-28T10:12:36.666Z,97.99
2022-12-28T10:13:56.677Z,98.16
2022-12-28T10:15:01.194Z,98.01
2022-12-28T10:16:21.674Z,97.78
2022-12-28T10:17:30.555Z,97.53
2022-12-28T10:18:39.341Z,97.71
2022-12-28T10:19:47.106Z,97.38
2022-12-28T10:20:50.650Z,97.65
2022-12-28T10:22:03.437Z,97.36
2022-12-28T10:23:07.273Z,97.04
2022-12-28T10:24:31.019Z,97.30
2022-12-28T10:25:34.967Z,97.00
2022-12-28T10:26:39.039Z,97.03
2022-12-28T10:27:43.068Z,96.97
2022-12-28T10:28:52.378Z,96.79
2022-12-28T10:29:55.540Z,97.11
2022-12-28T10:31:08.391Z,97.11
2022-12-28T10:32:14.640Z,96.99
2022-12-28T10:33:19.714Z,96.60
2022-12-28T10:34:22.866Z,96.53
2022-12-28T10:35:50.071Z,96.37
2022-12-28T10:36:55.521Z,96.50
2022-12-28T10:38:29.225Z,96.35
2022-12-28T10:39:34.213Z,95.97
2022-12-28T10:40:41.871Z,96.09
2022-12-28T10:41:45.782Z,96.01
2022-12-28T10:42:52.560Z,96.22
2022-12-28T10:44:29.393Z,96.43
2022-12-28T10:45:24.070Z,96.17
2022-12-28T10:46:27.388Z,95.93
2022-12-28T10:47:35.994Z,95.74
2022-12-28T10:48:39.873Z,95.64
2022-12-28T10:50:18.476Z,95.76
2022-12-28T10:51:17.884Z,95.12
2022-12-28T10:52:21.982Z,94.87
2022-12-28T10:54:27.573Z,94.94
2022-12-28T10:55:33.584Z,94.85
2022-12-28T10:56:48.860Z,94.82
2022-12-28T10:58:27.533Z,94.79
2022-12-28T10:59:41.213Z,94.78
2022-12-28T11:00:56.154Z,94.80
2022-12-28T11:02:34.709Z,94.25
2022-12-28T11:03:41.074Z,94.49
2022-12-28T11:05:04.181Z,94.43
2022-12-28T11:06:09.657Z,94.29
2022-12-28T11:07:45.753Z,94.07
2022-12-28T11:09:27.293Z,94.45
2022-12-28T11:10:32.447Z,93.68
2022-12-28T11:11:35.562Z,93.06
2022-12-28T11:12:43.607Z,93.71
2022-12-28T11:13:53.538Z,93.43
2022-12-28T11:14:56.683Z,93.43
2022-12-28T11:16:13.252Z,93.16
2022-12-28T11:17:20.788Z,93.69
2022-12-28T11:18:24.239Z,92.93
2022-12-28T11:19:27.302Z,93.02
2022-12-28T11:20:39.895Z,92.86
2022-12-28T11:21:44.622Z,93.22
2022-12-28T11:22:48.174Z,93.07
2022-12-28T11:23:52.924Z,92.83
2022-12-28T11:25:19.181Z,92.50
2022-12-28T11:26:24.869Z,92.13
2022-12-28T11:27:30.076Z,92.28
2022-12-28T11:28:33.118Z,92.25
2022-12-28T11:29:38.075Z,92.20
2022-12-28T11:30:41.570Z,92.38
2022-12-28T11:32:02.535Z,91.33
2022-12-28T11:33:10.080Z,91.18
2022-12-28T11:34:20.047Z,91.60
2022-12-28T11:35:27.628Z,91.74
2022-12-28T11:36:37.352Z,92.06
2022-12-28T11:37:49.702Z,91.70
2022-12-28T11:38:55.341Z,90.85
2022-12-28T11:39:59.049Z,91.49
2022-12-28T11:41:02.237Z,90.90
2022-12-28T11:43:29.311Z,90.53
2022-12-28T11:44:32.768Z,90.55
2022-12-28T11:45:54.180Z,90.06
2022-12-28T11:47:04.974Z,90.81
2022-12-28T11:48:42.496Z,90.39
2022-12-28T11:49:48.382Z,90.35
2022-12-28T11:50:54.201Z,90.56
2022-12-28T11:52:31.003Z,90.17
2022-12-28T11:53:34.049Z,90.09
2022-12-28T11:54:51.751Z,89.74
2022-12-28T11:56:16.265Z,90.41
2022-12-28T11:57:40.906Z,90.06
2022-12-28T11:58:47.719Z,89.18
2022-12-28T11:59:50.830Z,88.88
2022-12-28T12:00:53.925Z,89.50
2022-12-28T12:02:19.919Z,89.03
2022-12-28T12:03:58.695Z,89.59
2022-12-28T12:05:37.232Z,88.72
2022-12-28T12:06:45.271Z,88.60
2022-12-28T12:07:48.785Z,88.80
2022-12-28T12:08:52.450Z,88.85
2022-12-28T12:10:31.922Z,88.84
2022-12-28T12:11:40.489Z,88.13
2022-12-28T12:12:49.648Z,88.61
2022-12-28T12:13:54.670Z,87.93
2022-12-28T12:15:03.726Z,88.11
2022-12-28T12:16:19.342Z,88.22
2022-12-28T12:17:35.710Z,88.45
2022-12-28T12:19:00.824Z,88.04
2022-12-28T12:20:35.754Z,88.39
2022-12-28T12:21:45.846Z,88.26
2022-12-28T12:23:28.076Z,87.83
2022-12-28T12:24:41.550Z,88.25
2022-12-28T12:25:49.173Z,88.31
2022-12-28T12:27:12.285Z,88.73
2022-12-28T12:28:39.332Z,88.22
2022-12-28T12:29:57.134Z,88.19
2022-12-28T12:31:04.487Z,87.56
2022-12-28T12:32:15.828Z,87.87
2022-12-28T12:33:26.954Z,88.02
2022-12-28T12:35:04.962Z,88.30
2022-12-28T12:36:36.926Z,88.23
2022-12-28T12:38:29.157Z,87.62
2022-12-28T12:40:09.764Z,87.94
2022-12-28T12:41:54.824Z,87.68
2022-12-28T12:43:29.376Z,87.52
2022-12-28T12:45:03.556Z,87.22
2022-12-28T12:46:31.298Z,87.67
2022-12-28T12:48:14.182Z,88.00
2022-12-28T12:49:55.496Z,87.10
2022-12-28T12:51:22.335Z,86.59
2022-12-28T12:53:01.422Z,86.97
2022-12-28T12:54:35.224Z,87.09
2022-12-28T12:56:05.584Z,87.63
2022-12-28T12:57:30.451Z,87.08
2022-12-28T12:58:42.133Z,87.46
2022-12-28T13:00:12.699Z,87.49
2022-12-28T13:01:46.181Z,87.21
2022-12-28T13:03:14.674Z,87.15
2022-12-28T13:04:25.705Z,87.45
2022-12-28T13:05:30.540Z,87.73
2022-12-28T13:06:36.004Z,87.56
2022-12-28T13:07:40.268Z,86.93
2022-12-28T13:09:03.308Z,87.02
2022-12-28T13:10:16.107Z,87.35
2022-12-28T13:11:20.878Z,87.51
2022-12-28T13:12:25.013Z,87.42
2022-12-28T13:13:37.544Z,87.07
2022-12-28T13:14:47.434Z,87.12
2022-12-28T13:15:50.614Z,87.54
2022-12-28T13:16:56.818Z,87.35
2022-12-28T13:19:33.054Z,87.37
2022-12-28T13:20:36.164Z,87.27
2022-12-28T13:21:43.114Z,86.75
2022-12-28T13:22:48.371Z,86.65
2022-12-28T13:23:52.546Z,87.05
2022-12-28T13:24:55.628Z,86.84
2022-12-28T13:26:01.157Z,86.83
2022-12-28T13:27:18.966Z,86.85
2022-12-28T13:28:32.909Z,86.84
2022-12-28T13:29:40.028Z,86.52
2022-12-28T13:30:55.512Z,86.77
2022-12-28T13:31:58.934Z,86.81
2022-12-28T13:33:04.870Z,87.11
2022-12-28T13:34:28.028Z,86.84
2022-12-28T13:35:41.168Z,87.21
2022-12-28T13:37:00.126Z,87.15
2022-12-28T13:38:15.082Z,87.37
2022-12-28T13:39:42.360Z,87.16
2022-12-28T13:40:53.493Z,86.96
2022-12-28T13:42:03.757Z,86.79
2022-12-28T13:43:25.422Z,86.84
2022-12-28T13:44:38.431Z,87.00
2022-12-28T13:45:46.217Z,86.81
2022-12-28T13:47:24.755Z,86.68
2022-12-28T13:48:28.982Z,86.73
2022-12-28T13:49:50.879Z,86.68
2022-12-28T13:50:55.208Z,86.82
2022-12-28T13:51:58.895Z,86.69
2022-12-28T13:53:17.949Z,86.52
2022-12-28T13:54:25.079Z,86.77
2022-12-28T13:55:37.348Z,86.73
2022-12-28T13:56:44.427Z,86.06
2022-12-28T13:57:57.313Z,86.54
2022-12-28T13:59:07.772Z,87.19
2022-12-28T14:00:11.650Z,87.46
2022-12-28T14:01:22.855Z,86.94
2022-12-28T14:02:29.095Z,86.63
2022-12-28T14:03:39.386Z,86.83
2022-12-28T14:04:53.036Z,86.50
2022-12-28T14:06:00.257Z,86.76
2022-12-28T14:07:03.678Z,86.80
2022-12-28T14:08:07.267Z,87.17
2022-12-28T14:09:12.895Z,87.12
2022-12-28T14:10:16.753Z,87.18
2022-12-28T14:11:20.490Z,86.89
2022-12-28T14:12:24.932Z,86.65
2022-12-28T14:13:31.151Z,86.98
2022-12-28T14:14:34.490Z,87.32
2022-12-28T14:15:41.315Z,87.01
2022-12-28T14:16:45.727Z,87.31
2022-12-28T14:17:51.573Z,87.29
2022-12-28T14:18:54.878Z,87.08
2022-12-28T14:19:58.842Z,87.32
2022-12-28T14:21:04.110Z,86.69
2022-12-28T14:22:30.453Z,87.04
2022-12-28T14:23:36.006Z,87.07
2022-12-28T14:25:00.913Z,87.48
2022-12-28T14:26:08.447Z,87.56
2022-12-28T14:27:11.639Z,87.27
2022-12-28T14:28:25.791Z,87.77
2022-12-28T14:29:33.191Z,87.60
2022-12-28T14:30:43.347Z,87.84
2022-12-28T14:31:46.465Z,88.09
2022-12-28T14:32:49.663Z,87.73
2022-12-28T14:33:58.452Z,88.06
2022-12-28T14:35:02.435Z,87.65
2022-12-28T14:36:08.150Z,88.28
2022-12-28T14:37:35.825Z,88.02
2022-12-28T14:38:45.868Z,88.29
2022-12-28T14:39:49.742Z,88.33
2022-12-28T14:40:55.406Z,88.33
2022-12-28T14:41:59.735Z,88.41
2022-12-28T14:43:17.825Z,88.57
2022-12-28T14:44:28.199Z,88.40
2022-12-28T14:46:07.095Z,88.38
2022-12-28T14:47:43.056Z,88.65
2022-12-28T14:48:46.238Z,88.42
2022-12-28T14:49:49.242Z,88.27
2022-12-28T14:51:01.840Z,88.86
2022-12-28T14:52:07.729Z,88.73
2022-12-28T14:53:18.245Z,88.85
2022-12-28T14:54:28.806Z,88.83
2022-12-28T14:55:34.478Z,88.73
2022-12-28T14:56:38.634Z,88.92
2022-12-28T14:57:44.265Z,88.73
2022-12-28T14:58:55.497Z,88.95
2022-12-28T15:00:04.177Z,89.00
2022-12-28T15:01:09.602Z,89.24